sensor_id;sensor_type;location;lat;lon;timestamp;pressure;altitude;pressure_sealevel;temperature;humidity
16821;BME280;8527;49.740;6.604;2023-02-28T00:03:07;100755.09;;;-0.87;69.00
16821;BME280;8527;49.740;6.604;2023-02-28T00:08:06;100765.88;;;-0.94;70.44
16821;BME280;8527;49.740;6.604;2023-02-28T00:13:07;100769.78;;;-1.05;69.33
16821;BME280;8527;49.740;6.604;2023-02-28T00:18:06;100764.88;;;-1.11;70.56
16821;BME280;8527;49.740;6.604;2023-02-28T00:23:04;100758.75;;;-1.10;70.24
16821;BME280;8527;49.740;6.604;2023-02-28T00:28:06;100756.41;;;-1.16;71.26
16821;BME280;8527;49.740;6.604;2023-02-28T00:33:07;100765.53;;;-1.27;72.19
16821;BME280;8527;49.740;6.604;2023-02-28T00:38:06;100761.31;;;-1.29;72.29
16821;BME280;8527;49.740;6.604;2023-02-28T00:43:12;100756.50;;;-1.38;73.16
16821;BME280;8527;49.740;6.604;2023-02-28T00:48:13;100759.03;;;-1.37;73.27
16821;BME280;8527;49.740;6.604;2023-02-28T00:53:12;100753.91;;;-1.38;72.45
16821;BME280;8527;49.740;6.604;2023-02-28T00:58:10;100769.13;;;-1.50;73.93
16821;BME280;8527;49.740;6.604;2023-02-28T01:03:09;100769.50;;;-1.59;73.68
16821;BME280;8527;49.740;6.604;2023-02-28T01:08:12;100770.41;;;-1.60;74.55
16821;BME280;8527;49.740;6.604;2023-02-28T01:13:14;100768.22;;;-1.70;75.13
16821;BME280;8527;49.740;6.604;2023-02-28T01:18:12;100767.19;;;-1.65;74.84
16821;BME280;8527;49.740;6.604;2023-02-28T01:23:13;100760.47;;;-1.71;74.42
16821;BME280;8527;49.740;6.604;2023-02-28T01:28:12;100770.94;;;-1.73;75.81
16821;BME280;8527;49.740;6.604;2023-02-28T01:33:12;100763.59;;;-1.84;76.52
16821;BME280;8527;49.740;6.604;2023-02-28T01:38:13;100769.84;;;-1.88;76.23
16821;BME280;8527;49.740;6.604;2023-02-28T01:43:20;100761.31;;;-1.91;75.99
16821;BME280;8527;49.740;6.604;2023-02-28T01:48:26;100764.63;;;-1.88;76.01
16821;BME280;8527;49.740;6.604;2023-02-28T01:53:32;100756.41;;;-1.99;76.95
16821;BME280;8527;49.740;6.604;2023-02-28T01:58:31;100754.91;;;-2.05;75.75
16821;BME280;8527;49.740;6.604;2023-02-28T02:03:30;100752.22;;;-2.03;77.73
16821;BME280;8527;49.740;6.604;2023-02-28T02:08:31;100751.28;;;-2.01;77.75
16821;BME280;8527;49.740;6.604;2023-02-28T02:13:42;100751.16;;;-2.20;77.63
16821;BME280;8527;49.740;6.604;2023-02-28T02:18:57;100750.13;;;-2.16;77.06
16821;BME280;8527;49.740;6.604;2023-02-28T02:24:40;100739.63;;;-2.13;77.80
16821;BME280;8527;49.740;6.604;2023-02-28T02:30:12;100734.00;;;-2.24;77.96
16821;BME280;8527;49.740;6.604;2023-02-28T02:35:28;100742.91;;;-2.30;79.17
16821;BME280;8527;49.740;6.604;2023-02-28T02:40:33;100729.91;;;-2.30;79.27
16821;BME280;8527;49.740;6.604;2023-02-28T02:45:38;100742.59;;;-2.44;79.07
16821;BME280;8527;49.740;6.604;2023-02-28T02:50:46;100742.00;;;-2.51;80.20
16821;BME280;8527;49.740;6.604;2023-02-28T02:55:48;100733.22;;;-2.48;80.15
16821;BME280;8527;49.740;6.604;2023-02-28T03:00:53;100736.78;;;-2.51;79.58
16821;BME280;8527;49.740;6.604;2023-02-28T03:05:58;100735.19;;;-2.55;79.99
16821;BME280;8527;49.740;6.604;2023-02-28T03:11:12;100728.00;;;-2.71;79.68
16821;BME280;8527;49.740;6.604;2023-02-28T03:16:27;100738.34;;;-2.69;78.78
16821;BME280;8527;49.740;6.604;2023-02-28T03:21:34;100749.22;;;-2.59;80.49
16821;BME280;8527;49.740;6.604;2023-02-28T03:26:34;100744.75;;;-2.56;81.20
16821;BME280;8527;49.740;6.604;2023-02-28T03:31:39;100741.72;;;-2.67;80.08
16821;BME280;8527;49.740;6.604;2023-02-28T03:36:51;100744.97;;;-2.84;80.08
16821;BME280;8527;49.740;6.604;2023-02-28T03:41:53;100742.81;;;-2.73;82.68
16821;BME280;8527;49.740;6.604;2023-02-28T03:46:58;100740.16;;;-2.71;82.40
16821;BME280;8527;49.740;6.604;2023-02-28T03:52:02;100741.50;;;-2.38;83.21
16821;BME280;8527;49.740;6.604;2023-02-28T03:57:06;100743.94;;;-2.34;82.80
16821;BME280;8527;49.740;6.604;2023-02-28T04:02:08;100745.50;;;-2.30;82.97
16821;BME280;8527;49.740;6.604;2023-02-28T04:07:11;100743.13;;;-2.14;83.23
16821;BME280;8527;49.740;6.604;2023-02-28T04:12:09;100741.63;;;-2.19;83.47
16821;BME280;8527;49.740;6.604;2023-02-28T04:17:08;100740.78;;;-2.42;82.40
16821;BME280;8527;49.740;6.604;2023-02-28T04:22:12;100745.41;;;-2.50;83.42
16821;BME280;8527;49.740;6.604;2023-02-28T04:27:13;100746.03;;;-2.44;83.33
16821;BME280;8527;49.740;6.604;2023-02-28T04:32:15;100742.69;;;-2.47;83.12
16821;BME280;8527;49.740;6.604;2023-02-28T04:37:16;100738.88;;;-2.61;83.96
16821;BME280;8527;49.740;6.604;2023-02-28T04:42:15;100738.84;;;-2.59;85.15
16821;BME280;8527;49.740;6.604;2023-02-28T04:47:13;100739.44;;;-2.52;86.76
16821;BME280;8527;49.740;6.604;2023-02-28T04:52:11;100745.53;;;-2.53;86.76
16821;BME280;8527;49.740;6.604;2023-02-28T04:57:18;100743.06;;;-2.57;87.67
16821;BME280;8527;49.740;6.604;2023-02-28T05:02:17;100740.47;;;-2.57;87.01
16821;BME280;8527;49.740;6.604;2023-02-28T05:07:16;100745.50;;;-2.52;88.12
16821;BME280;8527;49.740;6.604;2023-02-28T05:12:20;100744.41;;;-2.46;89.29
16821;BME280;8527;49.740;6.604;2023-02-28T05:17:26;100745.19;;;-2.44;89.93
16821;BME280;8527;49.740;6.604;2023-02-28T05:22:24;100747.66;;;-2.41;90.34
16821;BME280;8527;49.740;6.604;2023-02-28T05:27:25;100741.59;;;-2.42;90.54
16821;BME280;8527;49.740;6.604;2023-02-28T05:32:24;100753.78;;;-2.42;90.31
16821;BME280;8527;49.740;6.604;2023-02-28T05:37:23;100758.78;;;-2.37;90.75
16821;BME280;8527;49.740;6.604;2023-02-28T05:42:21;100745.53;;;-2.31;91.03
16821;BME280;8527;49.740;6.604;2023-02-28T05:47:22;100749.06;;;-2.32;91.30
16821;BME280;8527;49.740;6.604;2023-02-28T05:52:20;100755.94;;;-2.31;91.33
16821;BME280;8527;49.740;6.604;2023-02-28T05:57:19;100748.00;;;-2.28;91.21
16821;BME280;8527;49.740;6.604;2023-02-28T06:02:18;100759.00;;;-2.21;91.13
16821;BME280;8527;49.740;6.604;2023-02-28T06:07:19;100753.03;;;-2.23;91.27
16821;BME280;8527;49.740;6.604;2023-02-28T06:12:17;100763.56;;;-2.27;91.19
16821;BME280;8527;49.740;6.604;2023-02-28T06:17:21;100763.56;;;-2.27;91.18
16821;BME280;8527;49.740;6.604;2023-02-28T06:22:22;100771.53;;;-2.31;91.42
16821;BME280;8527;49.740;6.604;2023-02-28T06:27:21;100773.94;;;-2.27;90.87
16821;BME280;8527;49.740;6.604;2023-02-28T06:32:19;100774.69;;;-2.23;90.41
16821;BME280;8527;49.740;6.604;2023-02-28T06:37:18;100778.72;;;-2.16;90.21
16821;BME280;8527;49.740;6.604;2023-02-28T06:42:19;100784.66;;;-2.12;89.84
16821;BME280;8527;49.740;6.604;2023-02-28T06:47:20;100787.84;;;-2.05;89.43
16821;BME280;8527;49.740;6.604;2023-02-28T06:52:18;100797.72;;;-1.91;88.48
16821;BME280;8527;49.740;6.604;2023-02-28T06:57:20;100798.00;;;-1.77;87.12
16821;BME280;8527;49.740;6.604;2023-02-28T07:02:20;100802.56;;;-1.61;86.05
16821;BME280;8527;49.740;6.604;2023-02-28T07:07:18;100803.22;;;-1.56;85.65
16821;BME280;8527;49.740;6.604;2023-02-28T07:12:19;100810.75;;;-1.50;85.36
16821;BME280;8527;49.740;6.604;2023-02-28T07:17:18;100821.56;;;-1.38;83.95
16821;BME280;8527;49.740;6.604;2023-02-28T07:22:16;100813.28;;;-1.28;83.17
16821;BME280;8527;49.740;6.604;2023-02-28T07:27:14;100809.97;;;-1.10;82.32
16821;BME280;8527;49.740;6.604;2023-02-28T07:32:22;100816.00;;;-0.89;81.27
16821;BME280;8527;49.740;6.604;2023-02-28T07:37:20;100831.78;;;-0.73;80.12
16821;BME280;8527;49.740;6.604;2023-02-28T07:42:18;100823.16;;;-0.54;79.59
16821;BME280;8527;49.740;6.604;2023-02-28T07:47:28;100823.72;;;-0.29;78.09
16821;BME280;8527;49.740;6.604;2023-02-28T07:52:27;100817.16;;;-0.18;77.36
16821;BME280;8527;49.740;6.604;2023-02-28T07:57:25;100816.72;;;-0.28;76.43
16821;BME280;8527;49.740;6.604;2023-02-28T08:02:32;100832.38;;;-0.28;76.64
16821;BME280;8527;49.740;6.604;2023-02-28T08:07:31;100824.75;;;0.23;74.62
16821;BME280;8527;49.740;6.604;2023-02-28T08:12:30;100821.09;;;0.08;74.23
16821;BME280;8527;49.740;6.604;2023-02-28T08:17:39;100818.94;;;0.36;73.06
16821;BME280;8527;49.740;6.604;2023-02-28T08:22:37;100817.00;;;0.39;72.42
16821;BME280;8527;49.740;6.604;2023-02-28T08:27:37;100824.69;;;0.60;71.48
16821;BME280;8527;49.740;6.604;2023-02-28T08:32:38;100809.63;;;0.65;70.87
16821;BME280;8527;49.740;6.604;2023-02-28T08:37:37;100811.91;;;0.89;69.67
16821;BME280;8527;49.740;6.604;2023-02-28T08:42:39;100809.66;;;0.99;69.43
16821;BME280;8527;49.740;6.604;2023-02-28T08:47:40;100812.84;;;1.22;68.18
16821;BME280;8527;49.740;6.604;2023-02-28T08:52:43;100814.38;;;1.42;67.82
16821;BME280;8527;49.740;6.604;2023-02-28T08:57:41;100805.09;;;1.68;66.07
16821;BME280;8527;49.740;6.604;2023-02-28T09:02:46;100808.38;;;2.04;65.66
16821;BME280;8527;49.740;6.604;2023-02-28T09:07:44;100811.19;;;1.53;64.73
16821;BME280;8527;49.740;6.604;2023-02-28T09:12:43;100816.41;;;1.69;64.53
16821;BME280;8527;49.740;6.604;2023-02-28T09:17:48;100804.03;;;1.73;63.03
16821;BME280;8527;49.740;6.604;2023-02-28T09:23:10;100798.53;;;1.61;62.21
16821;BME280;8527;49.740;6.604;2023-02-28T09:28:14;100795.31;;;1.72;61.92
16821;BME280;8527;49.740;6.604;2023-02-28T09:33:25;100802.91;;;1.61;61.75
16821;BME280;8527;49.740;6.604;2023-02-28T09:38:25;100810.00;;;1.26;62.00
16821;BME280;8527;49.740;6.604;2023-02-28T09:43:27;100798.09;;;1.21;62.01
16821;BME280;8527;49.740;6.604;2023-02-28T09:48:39;100795.47;;;1.21;61.63
16821;BME280;8527;49.740;6.604;2023-02-28T09:53:39;100799.78;;;1.22;61.11
16821;BME280;8527;49.740;6.604;2023-02-28T09:58:44;100811.63;;;1.11;60.20
16821;BME280;8527;49.740;6.604;2023-02-28T10:03:58;100802.47;;;1.20;60.33
16821;BME280;8527;49.740;6.604;2023-02-28T10:09:06;100789.84;;;1.29;60.45
16821;BME280;8527;49.740;6.604;2023-02-28T10:14:13;100805.72;;;1.90;58.84
16821;BME280;8527;49.740;6.604;2023-02-28T10:19:20;100798.34;;;2.27;58.00
16821;BME280;8527;49.740;6.604;2023-02-28T10:24:30;100809.31;;;2.34;57.56
16821;BME280;8527;49.740;6.604;2023-02-28T10:29:33;100790.25;;;2.46;57.54
16821;BME280;8527;49.740;6.604;2023-02-28T10:34:40;100780.53;;;2.79;56.64
16821;BME280;8527;49.740;6.604;2023-02-28T10:39:43;100784.94;;;2.48;57.56
16821;BME280;8527;49.740;6.604;2023-02-28T10:50:26;100764.91;;;2.32;58.14
16821;BME280;8527;49.740;6.604;2023-02-28T10:55:25;100770.09;;;2.63;57.29
16821;BME280;8527;49.740;6.604;2023-02-28T11:00:25;100763.00;;;2.79;57.99
16821;BME280;8527;49.740;6.604;2023-02-28T11:05:35;100762.53;;;2.58;57.32
16821;BME280;8527;49.740;6.604;2023-02-28T11:10:36;100768.31;;;2.78;57.37
16821;BME280;8527;49.740;6.604;2023-02-28T11:15:37;100752.13;;;3.29;55.95
16821;BME280;8527;49.740;6.604;2023-02-28T11:20:39;100752.84;;;3.73;53.72
16821;BME280;8527;49.740;6.604;2023-02-28T11:25:38;100749.22;;;3.89;53.75
16821;BME280;8527;49.740;6.604;2023-02-28T11:30:39;100735.19;;;3.62;51.87
16821;BME280;8527;49.740;6.604;2023-02-28T11:35:44;100753.84;;;3.58;51.10
16821;BME280;8527;49.740;6.604;2023-02-28T11:40:50;100752.81;;;3.18;51.23
16821;BME280;8527;49.740;6.604;2023-02-28T11:46:03;100750.41;;;3.43;51.02
16821;BME280;8527;49.740;6.604;2023-02-28T11:51:13;100738.84;;;3.60;49.87
16821;BME280;8527;49.740;6.604;2023-02-28T11:56:27;100738.56;;;3.77;49.53
16821;BME280;8527;49.740;6.604;2023-02-28T12:01:43;100735.47;;;3.58;50.33
16821;BME280;8527;49.740;6.604;2023-02-28T12:06:57;100728.94;;;3.50;49.87
16821;BME280;8527;49.740;6.604;2023-02-28T12:12:02;100730.31;;;3.29;50.57
16821;BME280;8527;49.740;6.604;2023-02-28T12:17:16;100720.22;;;3.50;50.34
16821;BME280;8527;49.740;6.604;2023-02-28T12:22:28;100725.69;;;3.32;50.10
16821;BME280;8527;49.740;6.604;2023-02-28T12:27:30;100722.75;;;3.51;50.22
16821;BME280;8527;49.740;6.604;2023-02-28T12:32:33;100726.41;;;3.49;49.97
16821;BME280;8527;49.740;6.604;2023-02-28T12:37:40;100711.06;;;3.43;50.05
16821;BME280;8527;49.740;6.604;2023-02-28T12:42:49;100718.88;;;3.57;49.53
16821;BME280;8527;49.740;6.604;2023-02-28T12:47:54;100709.31;;;3.56;49.59
16821;BME280;8527;49.740;6.604;2023-02-28T12:53:01;100701.41;;;3.71;48.96
16821;BME280;8527;49.740;6.604;2023-02-28T12:58:08;100695.50;;;4.20;48.59
16821;BME280;8527;49.740;6.604;2023-02-28T13:03:51;100685.19;;;4.04;48.25
16821;BME280;8527;49.740;6.604;2023-02-28T13:09:04;100691.38;;;4.03;47.95
16821;BME280;8527;49.740;6.604;2023-02-28T13:14:05;100686.78;;;4.07;47.94
16821;BME280;8527;49.740;6.604;2023-02-28T13:19:09;100676.72;;;4.27;47.66
16821;BME280;8527;49.740;6.604;2023-02-28T13:29:47;100676.06;;;4.36;46.75
16821;BME280;8527;49.740;6.604;2023-02-28T13:35:12;100675.47;;;4.32;46.93
16821;BME280;8527;49.740;6.604;2023-02-28T13:40:30;100678.50;;;4.65;46.93
16821;BME280;8527;49.740;6.604;2023-02-28T13:45:37;100673.06;;;4.55;45.65
16821;BME280;8527;49.740;6.604;2023-02-28T13:50:37;100680.06;;;4.42;45.69
16821;BME280;8527;49.740;6.604;2023-02-28T13:55:43;100712.25;;;4.58;45.73
16821;BME280;8527;49.740;6.604;2023-02-28T14:01:06;100681.13;;;4.65;46.16
16821;BME280;8527;49.740;6.604;2023-02-28T14:06:09;100676.38;;;4.70;45.63
16821;BME280;8527;49.740;6.604;2023-02-28T14:11:28;100676.09;;;4.49;46.05
16821;BME280;8527;49.740;6.604;2023-02-28T14:16:37;100672.38;;;4.64;46.13
16821;BME280;8527;49.740;6.604;2023-02-28T14:21:43;100670.84;;;4.62;46.55
16821;BME280;8527;49.740;6.604;2023-02-28T14:26:57;100661.16;;;4.62;46.23
16821;BME280;8527;49.740;6.604;2023-02-28T14:32:02;100668.91;;;4.77;46.67
16821;BME280;8527;49.740;6.604;2023-02-28T14:37:04;100668.13;;;5.01;46.88
16821;BME280;8527;49.740;6.604;2023-02-28T14:42:30;100665.84;;;4.83;46.43
16821;BME280;8527;49.740;6.604;2023-02-28T14:47:31;100674.88;;;4.79;46.44
16821;BME280;8527;49.740;6.604;2023-02-28T14:52:32;100683.94;;;4.75;45.80
16821;BME280;8527;49.740;6.604;2023-02-28T14:57:34;100670.41;;;4.68;46.47
16821;BME280;8527;49.740;6.604;2023-02-28T15:02:40;100663.47;;;4.54;46.86
16821;BME280;8527;49.740;6.604;2023-02-28T15:07:40;100661.91;;;4.52;46.82
16821;BME280;8527;49.740;6.604;2023-02-28T15:12:46;100664.72;;;4.61;46.96
16821;BME280;8527;49.740;6.604;2023-02-28T15:17:54;100655.25;;;4.59;47.16
16821;BME280;8527;49.740;6.604;2023-02-28T15:22:55;100647.47;;;4.70;46.76
16821;BME280;8527;49.740;6.604;2023-02-28T15:27:57;100640.31;;;4.72;46.54
16821;BME280;8527;49.740;6.604;2023-02-28T15:33:04;100643.25;;;4.68;47.19
16821;BME280;8527;49.740;6.604;2023-02-28T15:38:14;100656.22;;;4.58;46.90
16821;BME280;8527;49.740;6.604;2023-02-28T15:43:17;100661.59;;;4.56;47.82
16821;BME280;8527;49.740;6.604;2023-02-28T15:48:20;100652.03;;;4.55;47.52
16821;BME280;8527;49.740;6.604;2023-02-28T15:53:23;100655.69;;;4.53;47.72
16821;BME280;8527;49.740;6.604;2023-02-28T15:58:26;100657.78;;;4.47;47.75
16821;BME280;8527;49.740;6.604;2023-02-28T16:03:26;100663.69;;;4.25;48.54
16821;BME280;8527;49.740;6.604;2023-02-28T16:08:25;100674.81;;;4.16;48.91
16821;BME280;8527;49.740;6.604;2023-02-28T16:13:32;100666.50;;;4.09;49.43
16821;BME280;8527;49.740;6.604;2023-02-28T16:18:31;100674.69;;;4.04;49.36
16821;BME280;8527;49.740;6.604;2023-02-28T16:23:29;100676.88;;;3.98;49.70
16821;BME280;8527;49.740;6.604;2023-02-28T16:28:34;100690.22;;;3.94;49.97
16821;BME280;8527;49.740;6.604;2023-02-28T16:33:33;100689.78;;;3.88;50.34
16821;BME280;8527;49.740;6.604;2023-02-28T16:38:32;100693.44;;;3.85;50.03
16821;BME280;8527;49.740;6.604;2023-02-28T16:43:33;100695.63;;;3.78;50.56
16821;BME280;8527;49.740;6.604;2023-02-28T16:48:40;100699.13;;;3.79;50.55
16821;BME280;8527;49.740;6.604;2023-02-28T16:53:39;100705.91;;;3.69;50.49
16821;BME280;8527;49.740;6.604;2023-02-28T16:58:40;100708.81;;;3.64;50.88
16821;BME280;8527;49.740;6.604;2023-02-28T17:03:41;100714.56;;;3.56;51.50
16821;BME280;8527;49.740;6.604;2023-02-28T17:08:40;100714.03;;;3.51;51.46
16821;BME280;8527;49.740;6.604;2023-02-28T17:13:40;100722.19;;;3.46;51.89
16821;BME280;8527;49.740;6.604;2023-02-28T17:18:39;100730.56;;;3.38;51.83
16821;BME280;8527;49.740;6.604;2023-02-28T17:23:40;100733.97;;;3.26;52.11
16821;BME280;8527;49.740;6.604;2023-02-28T17:28:42;100742.31;;;3.18;52.36
16821;BME280;8527;49.740;6.604;2023-02-28T17:33:41;100752.50;;;3.08;52.70
16821;BME280;8527;49.740;6.604;2023-02-28T17:38:39;100757.28;;;3.02;53.06
16821;BME280;8527;49.740;6.604;2023-02-28T17:43:38;100763.75;;;2.96;53.41
16821;BME280;8527;49.740;6.604;2023-02-28T17:48:39;100772.34;;;2.84;53.91
16821;BME280;8527;49.740;6.604;2023-02-28T17:53:37;100772.75;;;2.77;54.46
16821;BME280;8527;49.740;6.604;2023-02-28T17:58:36;100782.19;;;2.65;56.02
16821;BME280;8527;49.740;6.604;2023-02-28T18:03:46;100782.28;;;2.64;55.34
16821;BME280;8527;49.740;6.604;2023-02-28T18:08:45;100786.38;;;2.53;55.24
16821;BME280;8527;49.740;6.604;2023-02-28T18:13:45;100781.13;;;2.53;55.27
16821;BME280;8527;49.740;6.604;2023-02-28T18:18:47;100787.00;;;2.43;56.10
16821;BME280;8527;49.740;6.604;2023-02-28T18:23:45;100790.97;;;2.34;56.49
16821;BME280;8527;49.740;6.604;2023-02-28T18:28:48;100788.88;;;2.41;56.13
16821;BME280;8527;49.740;6.604;2023-02-28T18:33:50;100796.13;;;2.35;56.53
16821;BME280;8527;49.740;6.604;2023-02-28T18:38:49;100787.63;;;2.32;56.94
16821;BME280;8527;49.740;6.604;2023-02-28T18:43:48;100797.72;;;2.23;57.23
16821;BME280;8527;49.740;6.604;2023-02-28T18:48:51;100803.97;;;2.05;58.44
16821;BME280;8527;49.740;6.604;2023-02-28T18:53:49;100794.94;;;1.94;58.36
16821;BME280;8527;49.740;6.604;2023-02-28T18:58:48;100808.47;;;1.87;59.07
16821;BME280;8527;49.740;6.604;2023-02-28T19:03:47;100800.81;;;1.83;59.54
16821;BME280;8527;49.740;6.604;2023-02-28T19:08:52;100801.81;;;1.81;59.34
16821;BME280;8527;49.740;6.604;2023-02-28T19:13:50;100804.34;;;1.66;59.86
16821;BME280;8527;49.740;6.604;2023-02-28T19:18:51;100793.19;;;1.63;60.69
16821;BME280;8527;49.740;6.604;2023-02-28T19:23:52;100792.69;;;1.56;60.37
16821;BME280;8527;49.740;6.604;2023-02-28T19:28:51;100796.16;;;1.57;60.38
16821;BME280;8527;49.740;6.604;2023-02-28T19:33:50;100800.38;;;1.43;61.71
16821;BME280;8527;49.740;6.604;2023-02-28T19:38:52;100803.84;;;1.28;62.79
16821;BME280;8527;49.740;6.604;2023-02-28T19:43:52;100803.56;;;1.32;62.20
16821;BME280;8527;49.740;6.604;2023-02-28T19:48:52;100810.00;;;1.26;63.17
16821;BME280;8527;49.740;6.604;2023-02-28T19:53:53;100806.31;;;1.13;63.78
16821;BME280;8527;49.740;6.604;2023-02-28T19:58:52;100818.22;;;1.19;64.17
16821;BME280;8527;49.740;6.604;2023-02-28T20:03:50;100806.34;;;0.95;65.00
16821;BME280;8527;49.740;6.604;2023-02-28T20:08:55;100811.53;;;0.79;65.98
16821;BME280;8527;49.740;6.604;2023-02-28T20:13:58;100813.44;;;0.76;65.62
16821;BME280;8527;49.740;6.604;2023-02-28T20:19:07;100816.44;;;0.68;66.63
16821;BME280;8527;49.740;6.604;2023-02-28T20:24:08;100818.69;;;0.40;66.67
16821;BME280;8527;49.740;6.604;2023-02-28T20:29:07;100820.56;;;0.38;67.53
16821;BME280;8527;49.740;6.604;2023-02-28T20:34:06;100811.00;;;0.37;67.85
16821;BME280;8527;49.740;6.604;2023-02-28T20:39:04;100815.00;;;0.45;66.92
16821;BME280;8527;49.740;6.604;2023-02-28T20:44:05;100814.63;;;0.35;67.35
16821;BME280;8527;49.740;6.604;2023-02-28T20:49:04;100809.78;;;0.27;68.08
16821;BME280;8527;49.740;6.604;2023-02-28T20:54:05;100816.53;;;0.13;67.55
16821;BME280;8527;49.740;6.604;2023-02-28T20:59:06;100815.06;;;0.08;67.79
16821;BME280;8527;49.740;6.604;2023-02-28T21:04:10;100810.66;;;0.08;67.60
16821;BME280;8527;49.740;6.604;2023-02-28T21:09:09;100811.44;;;0.10;68.95
16821;BME280;8527;49.740;6.604;2023-02-28T21:14:12;100808.66;;;-0.04;67.79
16821;BME280;8527;49.740;6.604;2023-02-28T21:19:11;100817.72;;;-0.11;69.39
16821;BME280;8527;49.740;6.604;2023-02-28T21:24:11;100807.84;;;-0.24;69.97
16821;BME280;8527;49.740;6.604;2023-02-28T21:29:12;100815.03;;;-0.29;69.64
16821;BME280;8527;49.740;6.604;2023-02-28T21:34:13;100803.28;;;-0.38;70.16
16821;BME280;8527;49.740;6.604;2023-02-28T21:39:17;100801.66;;;-0.40;70.17
16821;BME280;8527;49.740;6.604;2023-02-28T21:44:20;100794.28;;;-0.50;70.63
16821;BME280;8527;49.740;6.604;2023-02-28T21:49:20;100799.75;;;-0.56;71.08
16821;BME280;8527;49.740;6.604;2023-02-28T21:54:23;100793.34;;;-0.68;71.92
16821;BME280;8527;49.740;6.604;2023-02-28T21:59:25;100796.94;;;-0.71;72.04
16821;BME280;8527;49.740;6.604;2023-02-28T22:04:28;100789.94;;;-0.89;72.14
16821;BME280;8527;49.740;6.604;2023-02-28T22:09:27;100781.28;;;-0.90;73.71
16821;BME280;8527;49.740;6.604;2023-02-28T22:14:31;100784.09;;;-0.94;73.49
16821;BME280;8527;49.740;6.604;2023-02-28T22:19:29;100784.03;;;-0.93;73.74
16821;BME280;8527;49.740;6.604;2023-02-28T22:24:29;100793.22;;;-1.05;73.22
16821;BME280;8527;49.740;6.604;2023-02-28T22:29:35;100789.72;;;-1.04;73.46
16821;BME280;8527;49.740;6.604;2023-02-28T22:34:36;100792.06;;;-1.18;74.91
16821;BME280;8527;49.740;6.604;2023-02-28T22:39:36;100798.25;;;-1.21;74.66
16821;BME280;8527;49.740;6.604;2023-02-28T22:44:38;100805.38;;;-1.24;76.08
16821;BME280;8527;49.740;6.604;2023-02-28T22:49:38;100798.78;;;-1.33;75.69
16821;BME280;8527;49.740;6.604;2023-02-28T22:54:37;100808.38;;;-1.34;75.71
16821;BME280;8527;49.740;6.604;2023-02-28T22:59:38;100817.31;;;-1.41;75.55
16821;BME280;8527;49.740;6.604;2023-02-28T23:04:36;100819.94;;;-1.41;74.28
16821;BME280;8527;49.740;6.604;2023-02-28T23:09:34;100823.59;;;-1.45;74.98
16821;BME280;8527;49.740;6.604;2023-02-28T23:14:53;100819.75;;;-1.57;76.83
16821;BME280;8527;49.740;6.604;2023-02-28T23:19:51;100829.94;;;-1.52;75.77
16821;BME280;8527;49.740;6.604;2023-02-28T23:24:52;100822.34;;;-1.57;76.39
16821;BME280;8527;49.740;6.604;2023-02-28T23:30:02;100817.84;;;-1.53;77.12
16821;BME280;8527;49.740;6.604;2023-02-28T23:35:09;100817.75;;;-1.50;76.26
16821;BME280;8527;49.740;6.604;2023-02-28T23:40:10;100810.50;;;-1.64;77.13
16821;BME280;8527;49.740;6.604;2023-02-28T23:45:14;100819.66;;;-1.76;76.15
16821;BME280;8527;49.740;6.604;2023-02-28T23:50:18;100816.38;;;-1.81;77.06
16821;BME280;8527;49.740;6.604;2023-02-28T23:55:17;100815.72;;;-1.87;76.04
